Time;durP1;ratioP1;P1;durP2;ratioP2;P2;SDS_P1;SDS_P2;PMS_P1;PMS_P2;Temp;Humidity;BMP_temperature;BMP_pressure;BME280_temperature;BME280_humidity;BME280_pressure;Samples;Min_cycle;Max_cycle;Signal;HPM_P1;HPM_P2
2022/12/17 13:08:14;;;;;;;101.03;50.17;;;;;;;12.55;95.30;99490.28;5012364;28;20544;-87
2022/12/17 13:10:40;;;;;;;;;;;;;;;12.51;95.42;99495.78;5007320;28;20054;-87
2022/12/17 13:13:16;;;;;;;49.72;28.05;;;;;;;12.65;95.65;99487.03;5008867;28;19968;-88
2022/12/17 13:15:52;;;;;;;34.03;19.90;;;;;;;12.73;93.15;99469.25;5011329;28;20099;-87
2022/12/17 13:18:40;;;;;;;34.20;20.08;;;;;;;12.78;93.02;99482.25;5011137;28;20022;-87
2022/12/17 13:21:26;;;;;;;32.95;19.90;;;;;;;12.72;93.28;99495.69;5012036;28;20069;-88
2022/12/17 13:23:52;;;;;;;37.30;23.60;;;;;;;12.61;93.38;99503.75;5007537;28;20515;-88
2022/12/17 13:26:29;;;;;;;46.00;28.65;;;;;;;12.53;92.23;99507.47;5010944;28;20018;-89
2022/12/17 13:28:55;;;;;;;43.60;27.48;;;;;;;12.65;92.06;99512.28;5007551;28;20041;-89
2022/12/17 13:31:46;;;;;;;47.15;25.65;;;;;;;12.57;92.40;99513.22;5012385;28;20489;-88
2022/12/17 13:34:22;;;;;;;39.22;25.42;;;;;;;12.45;92.28;99478.34;4999695;28;20037;-91
2022/12/17 13:37:32;;;;;;;44.13;25.10;;;;;;;12.53;92.72;99487.84;5010173;28;20412;-88
2022/12/17 13:40:03;;;;;;;39.67;25.75;;;;;;;12.62;92.41;99494.16;5008159;28;20034;-87
2022/12/17 13:42:35;;;;;;;56.83;32.30;;;;;;;12.60;92.31;99492.88;5005763;28;20519;-84
2022/12/17 13:45:01;;;;;;;124.47;72.68;;;;;;;12.72;91.55;99515.34;5004028;28;20036;-86
2022/12/17 13:47:34;;;;;;;66.22;38.45;;;;;;;12.63;91.70;99493.00;5012308;28;20029;-86
2022/12/17 13:50:11;;;;;;;46.88;27.98;;;;;;;12.56;92.00;99487.13;5011584;28;20022;-85
2022/12/17 13:52:36;;;;;;;51.35;31.88;;;;;;;12.57;92.09;99497.19;5010423;28;20030;-85
2022/12/17 13:55:15;;;;;;;81.03;43.92;;;;;;;12.70;92.01;99517.69;5012575;28;20120;-86
2022/12/17 13:57:44;;;;;;;60.83;32.40;;;;;;;12.77;91.90;99497.44;5015959;28;20042;-85
2022/12/17 14:00:21;;;;;;;62.42;32.17;;;;;;;12.69;91.54;99487.97;5009172;28;20018;-86
2022/12/17 14:02:47;;;;;;;62.55;33.97;;;;;;;12.82;91.97;99500.03;5005742;28;20057;-86
2022/12/17 14:05:32;;;;;;;45.72;27.17;;;;;;;12.79;92.34;99509.16;5011363;28;20034;-85
2022/12/17 14:08:01;;;;;;;46.97;26.10;;;;;;;12.63;92.60;99498.59;5010665;28;20041;-85
2022/12/17 14:10:28;;;;;;;43.28;26.02;;;;;;;12.71;92.24;99508.09;5014312;28;20530;-86
2022/12/17 14:13:11;;;;;;;51.63;31.48;;;;;;;12.72;92.02;99503.28;5005724;28;20028;-86
2022/12/17 14:15:36;;;;;;;170.15;93.68;;;;;;;12.81;92.10;99520.84;5007510;28;20030;-86
2022/12/17 14:18:02;;;;;;;139.70;42.75;;;;;;;12.82;91.34;99518.88;5003687;28;20113;-88
2022/12/17 14:20:34;;;;;;;58.28;28.77;;;;;;;12.78;91.95;99530.75;5010087;28;20053;-85
2022/12/17 14:23:19;;;;;;;52.67;31.45;;;;;;;12.60;92.10;99506.91;5024744;28;20030;-85
2022/12/17 14:25:47;;;;;;;56.83;30.83;;;;;;;12.68;92.04;99517.22;5010904;28;20038;-85
2022/12/17 14:28:34;;;;;;;216.18;113.32;;;;;;;12.69;92.44;99532.03;5010623;28;20033;-85
2022/12/17 14:31:07;;;;;;;214.63;111.25;;;;;;;12.68;92.48;99536.84;5011299;28;20415;-84
2022/12/17 14:33:36;;;;;;;94.22;53.63;;;;;;;12.63;92.29;99535.09;5028156;28;20523;-85
2022/12/17 14:36:06;;;;;;;79.32;50.03;;;;;;;12.55;92.85;99536.00;5012244;28;20018;-85
2022/12/17 14:38:32;;;;;;;68.27;39.07;;;;;;;12.27;94.64;99528.22;5011597;28;20176;-85
2022/12/17 14:44:04;;;;;;;200.15;120.20;;;;;;;12.36;94.34;99540.13;5008620;28;20072;-85
2022/12/17 14:46:32;;;;;;;131.10;89.53;;;;;;;12.40;93.98;99543.06;5017218;28;20121;-84
2022/12/17 14:49:19;;;;;;;137.43;92.82;;;;;;;12.04;95.49;99553.81;5001648;28;20034;-85
2022/12/17 14:51:46;;;;;;;304.08;208.30;;;;;;;11.70;98.94;99577.28;5007109;28;20038;-85
2022/12/17 14:54:24;;;;;;;177.80;118.00;;;;;;;11.50;100.00;99599.31;5009955;28;20033;-85
2022/12/17 14:56:51;;;;;;;166.68;105.45;;;;;;;11.41;100.00;99595.75;5010442;28;20516;-85
2022/12/17 14:59:33;;;;;;;120.22;73.03;;;;;;;11.38;100.00;99600.03;5010501;28;20018;-85
2022/12/17 15:02:12;;;;;;;121.90;77.53;;;;;;;11.53;100.00;99587.44;5006521;28;20025;-85
2022/12/17 15:04:38;;;;;;;80.60;48.33;;;;;;;11.61;100.00;99608.16;5003290;28;20334;-86
2022/12/17 15:07:06;;;;;;;89.90;60.75;;;;;;;11.31;100.00;99642.56;5004966;28;20053;-85
2022/12/17 15:09:36;;;;;;;64.50;42.40;;;;;;;11.14;100.00;99654.66;5008644;28;20029;-85
2022/12/17 15:12:05;;;;;;;123.63;68.28;;;;;;;11.09;100.00;99658.44;5026549;28;20048;-86
2022/12/17 15:14:30;;;;;;;92.20;54.72;;;;;;;11.13;100.00;99681.00;5007881;28;20511;-87
2022/12/17 15:16:57;;;;;;;82.68;49.92;;;;;;;11.22;100.00;99697.78;5007931;28;20026;-85
2022/12/17 15:19:23;;;;;;;165.10;78.05;;;;;;;11.30;100.00;99701.72;5007709;28;20394;-84
2022/12/17 15:21:49;;;;;;;107.60;63.88;;;;;;;11.34;100.00;99711.94;5008721;28;20032;-83
2022/12/17 15:24:18;;;;;;;98.13;54.30;;;;;;;11.24;100.00;99659.88;5006997;28;20535;-85
2022/12/17 15:26:43;;;;;;;194.30;93.80;;;;;;;11.25;100.00;99655.13;5007310;28;20030;-85
2022/12/17 15:29:09;;;;;;;126.65;65.18;;;;;;;11.14;100.00;99639.84;5007336;28;20041;-86
2022/12/17 15:31:34;;;;;;;94.10;53.47;;;;;;;11.04;100.00;99627.84;5005969;28;20040;-86
2022/12/17 15:34:00;;;;;;;128.50;64.35;;;;;;;10.89;100.00;99617.22;5006212;28;20522;-85
2022/12/17 15:36:25;;;;;;;75.68;43.13;;;;;;;11.09;100.00;99638.06;5007437;28;20030;-86
2022/12/17 15:38:51;;;;;;;69.88;37.78;;;;;;;10.97;100.00;99599.53;5013499;28;20562;-85
2022/12/17 15:44:01;;;;;;;34.72;22.73;;;;;;;11.48;100.00;99503.63;5001594;28;20117;-85
2022/12/17 15:46:28;;;;;;;36.15;23.17;;;;;;;11.50;100.00;99507.69;5007283;28;20483;-84
2022/12/17 15:48:55;;;;;;;65.15;34.08;;;;;;;11.60;100.00;99556.09;5004931;28;20049;-85
2022/12/17 15:51:22;;;;;;;215.13;94.20;;;;;;;11.49;100.00;99581.69;5019677;28;20103;-85
2022/12/17 15:53:48;;;;;;;88.72;50.75;;;;;;;11.41;100.00;99615.34;5022362;28;20029;-86
2022/12/17 15:56:19;;;;;;;58.50;33.60;;;;;;;11.45;100.00;99602.31;5007016;28;20033;-85
2022/12/17 15:58:44;;;;;;;57.63;32.88;;;;;;;11.42;100.00;99598.22;5000171;28;20518;-84
2022/12/17 16:01:10;;;;;;;122.15;57.47;;;;;;;11.39;100.00;99596.06;5004039;28;20057;-86
2022/12/17 16:03:35;;;;;;;139.25;62.22;;;;;;;11.47;100.00;99602.81;5002162;28;20120;-86
2022/12/17 16:06:01;;;;;;;80.82;39.65;;;;;;;11.44;100.00;99615.50;5006084;28;20034;-86
2022/12/17 16:08:26;;;;;;;73.28;36.70;;;;;;;11.63;100.00;99606.66;5005763;28;20523;-86
2022/12/17 16:10:52;;;;;;;82.85;41.70;;;;;;;11.60;100.00;99575.69;5007303;28;20064;-86
2022/12/17 16:13:17;;;;;;;58.92;33.20;;;;;;;11.46;100.00;99601.97;5016280;28;20461;-86
2022/12/17 16:15:43;;;;;;;413.73;215.90;;;;;;;11.40;100.00;99602.50;5007510;28;20459;-86
2022/12/17 16:18:08;;;;;;;165.63;102.00;;;;;;;11.55;100.00;99599.13;5006856;28;20274;-86
2022/12/17 16:20:34;;;;;;;130.75;77.70;;;;;;;11.57;100.00;99580.00;5006816;28;20838;-85
2022/12/17 16:23:00;;;;;;;110.43;61.67;;;;;;;10.85;100.00;99614.25;5019794;28;20412;-86
2022/12/17 16:25:25;;;;;;;175.90;113.38;;;;;;;10.55;100.00;99591.75;5004229;28;20144;-85
2022/12/17 16:27:51;;;;;;;155.70;97.63;;;;;;;10.88;100.00;99593.19;5006141;28;20072;-85
2022/12/17 16:30:16;;;;;;;140.60;84.00;;;;;;;10.85;100.00;99582.63;5006168;28;20547;-85
2022/12/17 16:32:42;;;;;;;134.38;85.07;;;;;;;11.02;100.00;99613.38;5005463;28;20030;-84
2022/12/17 16:35:08;;;;;;;130.65;80.78;;;;;;;11.01;100.00;99594.09;5005819;28;20033;-85
2022/12/17 16:37:33;;;;;;;80.68;46.95;;;;;;;10.94;100.00;99591.81;5005351;28;20030;-85
2022/12/17 16:39:59;;;;;;;57.78;35.50;;;;;;;10.89;100.00;99611.59;5005267;28;20033;-84
2022/12/17 16:42:24;;;;;;;54.03;31.42;;;;;;;10.80;100.00;99604.06;5006054;28;20087;-85
2022/12/17 16:44:50;;;;;;;47.50;30.08;;;;;;;10.71;100.00;99617.22;5005793;28;20029;-88
2022/12/17 16:47:15;;;;;;;57.38;29.77;;;;;;;10.63;100.00;99621.69;5006198;28;20065;-87
2022/12/17 16:49:40;;;;;;;47.50;30.15;;;;;;;10.70;100.00;99640.78;5006677;28;20033;-87
2022/12/17 16:52:06;;;;;;;50.13;29.30;;;;;;;10.50;100.00;99623.53;5006754;28;20014;-87
2022/12/17 16:54:32;;;;;;;58.75;34.95;;;;;;;10.43;100.00;99617.63;5006603;28;20037;-87
2022/12/17 16:56:59;;;;;;;62.83;35.17;;;;;;;10.45;100.00;99622.88;5005801;28;20029;-86
2022/12/17 16:59:24;;;;;;;55.10;32.75;;;;;;;10.58;100.00;99629.44;5007780;28;20187;-86
2022/12/17 17:01:51;;;;;;;54.88;28.48;;;;;;;10.67;100.00;99639.44;5009828;28;20140;-86
2022/12/17 17:04:18;;;;;;;58.97;33.97;;;;;;;10.68;100.00;99640.28;5016575;28;20490;-86
2022/12/17 17:06:52;;;;;;;65.18;34.85;;;;;;;10.46;100.00;99658.91;5008422;28;20503;-86
2022/12/17 17:09:19;;;;;;;73.88;37.72;;;;;;;10.40;100.00;99651.81;5008721;28;20428;-86
2022/12/17 17:11:45;;;;;;;71.72;38.63;;;;;;;10.52;100.00;99670.75;5009528;28;20026;-87
2022/12/17 17:14:11;;;;;;;59.75;35.70;;;;;;;10.42;100.00;99677.50;5009638;28;20038;-86
2022/12/17 17:16:37;;;;;;;72.65;38.22;;;;;;;10.34;100.00;99684.69;5008111;28;20041;-86
2022/12/17 17:19:03;;;;;;;72.25;39.42;;;;;;;9.99;100.00;99690.25;5020717;28;20110;-86
2022/12/17 17:21:34;;;;;;;83.35;39.97;;;;;;;10.19;100.00;99691.59;5010002;28;20046;-86
2022/12/17 17:24:12;;;;;;;94.10;43.40;;;;;;;10.37;100.00;99697.19;5009336;28;20030;-86
2022/12/17 17:26:38;;;;;;;81.72;42.47;;;;;;;10.42;100.00;99693.44;5019927;28;20404;-87
2022/12/17 17:29:04;;;;;;;117.00;61.58;;;;;;;10.16;100.00;99692.25;5011091;28;20034;-87
2022/12/17 17:31:30;;;;;;;105.20;59.05;;;;;;;10.16;100.00;99681.06;5010309;28;20137;-87
2022/12/17 17:33:55;;;;;;;105.05;57.92;;;;;;;10.31;100.00;99692.91;5009503;28;20109;-87
2022/12/17 17:36:29;;;;;;;114.22;68.43;;;;;;;10.15;100.00;99676.63;5010540;28;20025;-86
2022/12/17 17:38:56;;;;;;;120.82;68.05;;;;;;;10.05;100.00;99707.69;5009930;28;20034;-87
2022/12/17 17:41:23;;;;;;;121.50;70.13;;;;;;;10.23;100.00;99720.53;5009123;28;20411;-88
2022/12/17 17:43:58;;;;;;;153.90;82.82;;;;;;;10.33;100.00;99713.81;5008964;28;20037;-87
2022/12/17 17:46:25;;;;;;;134.77;72.72;;;;;;;10.31;100.00;99716.09;5009052;28;20026;-86
2022/12/17 17:48:50;;;;;;;140.02;79.25;;;;;;;10.30;100.00;99706.06;5007886;28;20025;-86
2022/12/17 17:51:19;;;;;;;128.95;71.78;;;;;;;10.49;100.00;99727.34;5008369;28;20507;-87
2022/12/17 17:53:50;;;;;;;139.45;70.78;;;;;;;10.35;100.00;99716.25;5008781;28;20029;-87
2022/12/17 17:56:19;;;;;;;122.45;67.70;;;;;;;10.43;100.00;99723.88;5023748;28;20026;-87
2022/12/17 17:58:50;;;;;;;142.40;71.03;;;;;;;10.41;100.00;99728.97;5025374;28;20406;-87
2022/12/17 18:01:21;;;;;;;159.88;82.13;;;;;;;10.48;100.00;99728.50;5020690;28;20168;-87
2022/12/17 18:03:47;;;;;;;123.25;67.53;;;;;;;10.51;100.00;99722.22;5001615;28;20508;-86
2022/12/17 18:06:13;;;;;;;105.40;61.45;;;;;;;10.61;100.00;99729.47;5006973;28;20025;-87
2022/12/17 18:08:40;;;;;;;114.28;65.93;;;;;;;10.38;100.00;99718.44;5007746;28;20030;-86
2022/12/17 18:11:07;;;;;;;130.63;74.65;;;;;;;10.49;100.00;99730.94;5006276;28;20377;-86
2022/12/17 18:16:19;;;;;;;135.13;68.95;;;;;;;10.49;100.00;99733.75;5010975;28;20040;-87
2022/12/17 18:18:45;;;;;;;147.70;76.18;;;;;;;10.49;100.00;99735.72;5008961;28;20040;-86
2022/12/17 18:21:13;;;;;;;153.35;81.32;;;;;;;10.53;100.00;99728.31;5017950;28;20053;-86
2022/12/17 18:23:39;;;;;;;161.52;87.75;;;;;;;10.46;100.00;99720.41;5009223;28;20037;-86
2022/12/17 18:26:09;;;;;;;183.40;97.95;;;;;;;10.42;100.00;99727.81;5008832;28;20038;-86
2022/12/17 18:28:36;;;;;;;206.93;114.78;;;;;;;10.39;100.00;99722.88;5005101;28;20034;-87
2022/12/17 18:31:11;;;;;;;208.85;110.80;;;;;;;10.50;100.00;99741.00;5019938;28;20038;-86
2022/12/17 18:33:40;;;;;;;207.05;108.40;;;;;;;10.44;100.00;99727.47;5004176;28;20065;-86
2022/12/17 18:36:16;;;;;;;172.90;85.47;;;;;;;10.36;100.00;99738.31;5006318;28;20033;-87
2022/12/17 18:38:42;;;;;;;118.90;64.95;;;;;;;10.24;100.00;99727.75;5007188;28;20092;-86
2022/12/17 18:44:05;;;;;;;205.32;82.68;;;;;;;10.44;100.00;99736.72;5008904;28;20254;-86
2022/12/17 18:46:32;;;;;;;108.60;53.20;;;;;;;10.30;100.00;99747.19;5004906;28;20564;-86
2022/12/17 18:49:04;;;;;;;103.95;52.63;;;;;;;10.20;100.00;99745.53;5004568;28;20095;-86
2022/12/17 18:51:30;;;;;;;97.95;50.30;;;;;;;10.21;100.00;99752.78;5006148;28;20025;-84
2022/12/17 18:53:58;;;;;;;113.32;59.08;;;;;;;10.38;100.00;99763.97;5002975;28;20048;-85
2022/12/17 18:56:24;;;;;;;91.28;50.90;;;;;;;10.37;100.00;99758.69;5002146;28;20021;-85
2022/12/17 18:58:54;;;;;;;93.45;51.58;;;;;;;10.31;100.00;99754.44;5004967;28;20026;-86
2022/12/17 19:01:40;;;;;;;123.18;62.97;;;;;;;10.45;100.00;99769.13;5003181;28;20520;-85
2022/12/17 19:04:08;;;;;;;127.55;61.72;;;;;;;10.25;100.00;99753.75;5004411;28;20475;-85
2022/12/17 19:06:35;;;;;;;102.60;56.15;;;;;;;10.29;100.00;99779.91;5004481;28;20115;-86
2022/12/17 19:09:01;;;;;;;105.47;60.38;;;;;;;10.28;100.00;99778.25;5019278;28;20026;-85
2022/12/17 19:11:27;;;;;;;147.57;87.80;;;;;;;10.43;100.00;99798.53;5004122;28;20037;-86
2022/12/17 19:13:53;;;;;;;206.55;119.72;;;;;;;10.43;100.00;99782.59;5004049;28;20041;-86
2022/12/17 19:16:21;;;;;;;162.88;98.30;;;;;;;10.50;100.00;99780.16;5004714;28;20033;-86
2022/12/17 19:19:00;;;;;;;119.28;72.28;;;;;;;10.56;100.00;99788.38;5005472;28;20500;-86
2022/12/17 19:21:26;;;;;;;99.25;60.30;;;;;;;10.55;100.00;99790.34;5003081;28;20077;-84
2022/12/17 19:24:00;;;;;;;113.50;64.78;;;;;;;10.43;100.00;99807.78;5004109;28;20132;-86
2022/12/17 19:26:27;;;;;;;147.10;83.97;;;;;;;9.45;100.00;99791.72;5006244;28;20121;-86
2022/12/17 19:28:55;;;;;;;171.63;94.53;;;;;;;9.65;100.00;99820.28;5004467;28;20172;-86
2022/12/17 19:31:23;;;;;;;170.52;95.32;;;;;;;9.91;100.00;99833.53;5008296;28;20022;-85
2022/12/17 19:33:52;;;;;;;154.52;93.88;;;;;;;9.91;100.00;99834.38;5006950;28;20026;-86
2022/12/17 19:36:19;;;;;;;158.43;91.40;;;;;;;9.87;100.00;99826.97;5003174;28;20029;-86
2022/12/17 19:38:45;;;;;;;145.85;85.43;;;;;;;10.01;100.00;99819.28;5006068;28;20029;-86
2022/12/17 19:41:16;;;;;;;156.82;95.72;;;;;;;9.87;100.00;99824.97;5006014;28;20571;-86
2022/12/17 19:43:46;;;;;;;135.40;75.15;;;;;;;9.80;100.00;99824.63;5007227;28;20022;-85
2022/12/17 19:46:14;;;;;;;117.65;63.30;;;;;;;9.55;100.00;99824.16;4982184;28;20039;-85
2022/12/17 19:48:40;;;;;;;97.03;55.63;;;;;;;9.73;100.00;99821.47;4969820;28;20556;-85
2022/12/17 19:51:08;;;;;;;99.82;53.38;;;;;;;9.84;100.00;99808.88;4968014;28;20133;-86
2022/12/17 19:53:35;;;;;;;95.43;54.17;;;;;;;9.76;100.00;99818.00;4969655;28;20121;-85
2022/12/17 19:56:10;;;;;;;94.38;55.63;;;;;;;9.53;100.00;99820.84;4984565;28;20129;-85
2022/12/17 19:58:36;;;;;;;110.78;59.03;;;;;;;9.35;100.00;99815.16;4983206;28;20042;-86
2022/12/17 20:01:09;;;;;;;120.18;58.97;;;;;;;9.40;100.00;99820.59;4969892;28;20541;-85
2022/12/17 20:03:36;;;;;;;115.78;58.10;;;;;;;9.72;100.00;99814.22;4969637;28;20516;-85
2022/12/17 20:06:03;;;;;;;102.05;56.30;;;;;;;9.76;100.00;99793.72;4967699;28;20042;-85
2022/12/17 20:08:29;;;;;;;118.05;66.68;;;;;;;9.83;100.00;99807.22;4970035;28;20065;-86
2022/12/17 20:10:55;;;;;;;111.72;62.88;;;;;;;9.46;100.00;99814.91;4964499;28;20410;-85
2022/12/17 20:13:21;;;;;;;105.25;58.03;;;;;;;9.14;100.00;99817.66;4976214;28;20125;-85
2022/12/17 20:15:47;;;;;;;110.90;59.28;;;;;;;9.12;100.00;99845.88;4984291;28;20035;-85
2022/12/17 20:18:12;;;;;;;145.27;79.70;;;;;;;8.82;100.00;99825.94;5002967;28;20108;-88
2022/12/17 20:20:38;;;;;;;130.25;67.80;;;;;;;8.89;100.00;99842.25;5006519;28;20092;-87
2022/12/17 20:23:03;;;;;;;147.40;76.93;;;;;;;8.92;100.00;99866.72;5006878;28;20480;-86
2022/12/17 20:25:29;;;;;;;129.95;69.55;;;;;;;8.69;100.00;99837.97;5006914;28;20038;-85
2022/12/17 20:27:54;;;;;;;142.95;77.57;;;;;;;8.80;100.00;99853.31;5018034;28;20042;-86
2022/12/17 20:30:21;;;;;;;145.35;76.63;;;;;;;8.88;100.00;99865.69;5006683;28;20022;-86
2022/12/17 20:32:46;;;;;;;140.50;78.18;;;;;;;9.11;100.00;99869.34;5006675;28;20040;-86
2022/12/17 20:35:12;;;;;;;131.40;72.18;;;;;;;9.34;100.00;99872.16;5008259;28;20508;-86
2022/12/17 20:37:38;;;;;;;148.35;83.90;;;;;;;9.32;100.00;99863.28;5011803;28;20032;-85
2022/12/17 20:40:04;;;;;;;138.18;81.40;;;;;;;9.51;100.00;99865.88;5009356;28;20030;-86
2022/12/17 20:42:29;;;;;;;136.43;77.88;;;;;;;9.42;100.00;99837.06;5011940;28;20026;-87
2022/12/17 20:44:55;;;;;;;136.07;76.68;;;;;;;9.29;100.00;99865.88;5013980;28;20425;-86
2022/12/17 20:47:20;;;;;;;123.40;74.30;;;;;;;9.65;100.00;99879.75;5005886;28;21468;-86
2022/12/17 20:49:46;;;;;;;120.43;71.38;;;;;;;9.67;100.00;99885.84;5008146;28;20161;-86
2022/12/17 20:52:11;;;;;;;117.90;68.30;;;;;;;9.68;100.00;99887.50;5009000;28;20112;-86
2022/12/17 20:54:37;;;;;;;119.53;68.63;;;;;;;9.79;100.00;99878.84;5007785;28;20033;-86
2022/12/17 20:57:02;;;;;;;125.63;74.95;;;;;;;9.82;100.00;99879.00;5009145;28;20040;-86
2022/12/17 20:59:28;;;;;;;121.70;68.80;;;;;;;9.80;100.00;99867.34;5010985;28;20116;-86
2022/12/17 21:01:53;;;;;;;117.45;69.38;;;;;;;9.77;100.00;99886.72;5014887;28;20484;-85
2022/12/17 21:04:18;;;;;;;109.45;63.97;;;;;;;9.58;100.00;99873.78;5010764;28;20053;-85
2022/12/17 21:06:46;;;;;;;117.22;71.15;;;;;;;9.61;100.00;99898.28;5008847;28;20042;-86
2022/12/17 21:09:18;;;;;;;211.40;117.60;;;;;;;9.64;100.00;99882.88;5009709;28;20480;-87
2022/12/17 21:11:44;;;;;;;233.82;125.63;;;;;;;9.77;100.00;99895.09;5004455;28;20034;-87
2022/12/17 21:14:13;;;;;;;123.25;73.82;;;;;;;9.50;100.00;99905.25;5010949;28;20022;-88
2022/12/17 21:16:42;;;;;;;148.00;88.50;;;;;;;9.41;100.00;99897.66;5010024;28;20033;-86
2022/12/17 21:19:14;;;;;;;137.70;77.55;;;;;;;9.33;100.00;99895.63;5012365;28;20451;-88
2022/12/17 21:21:40;;;;;;;119.35;67.88;;;;;;;9.53;100.00;99910.22;5008939;28;20022;-87
2022/12/17 21:24:07;;;;;;;198.43;109.15;;;;;;;9.25;100.00;99893.56;5011038;28;20492;-86
2022/12/17 21:26:38;;;;;;;140.40;78.03;;;;;;;9.22;100.00;99903.41;5010709;28;20030;-86
2022/12/17 21:29:06;;;;;;;128.68;68.45;;;;;;;9.00;100.00;99895.81;5009693;28;20207;-86
2022/12/17 21:31:42;;;;;;;126.10;70.18;;;;;;;9.06;100.00;99882.59;5025163;28;20500;-86
2022/12/17 21:34:14;;;;;;;181.50;105.57;;;;;;;8.70;100.00;99892.59;5008960;28;20034;-86
2022/12/17 21:36:39;;;;;;;175.98;103.30;;;;;;;8.46;100.00;99901.97;5010489;28;20029;-87
2022/12/17 21:39:07;;;;;;;151.52;87.85;;;;;;;8.63;100.00;99897.75;5010172;28;20025;-87
2022/12/17 21:41:34;;;;;;;153.45;88.80;;;;;;;8.64;100.00;99908.63;5009256;28;20395;-85
2022/12/17 21:44:05;;;;;;;126.82;70.32;;;;;;;8.49;100.00;99906.94;5009068;28;20413;-86
2022/12/17 21:46:30;;;;;;;;;;;;;;;8.66;100.00;99908.28;5010543;28;20025;-86
2022/12/17 21:48:57;;;;;;;109.07;61.88;;;;;;;8.81;100.00;99904.34;5009425;28;20322;-86
2022/12/17 21:51:23;;;;;;;106.72;63.10;;;;;;;9.03;100.00;99903.56;5010799;28;20032;-85
2022/12/17 21:54:00;;;;;;;108.97;62.35;;;;;;;8.93;100.00;99904.63;5009537;28;20073;-86
2022/12/17 21:56:28;;;;;;;97.00;58.22;;;;;;;8.85;100.00;99911.78;5008719;28;20014;-86
2022/12/17 21:58:59;;;;;;;102.53;55.45;;;;;;;8.81;100.00;99921.91;5007116;28;20033;-86
2022/12/17 22:01:30;;;;;;;80.72;50.95;;;;;;;8.73;100.00;99919.84;5003975;28;20412;-87
2022/12/17 22:03:57;;;;;;;88.07;49.92;;;;;;;8.89;100.00;99914.78;5021747;28;20475;-87
2022/12/17 22:06:25;;;;;;;99.22;53.20;;;;;;;8.63;100.00;99911.69;5005399;28;20108;-87
2022/12/17 22:08:50;;;;;;;84.05;50.67;;;;;;;8.76;100.00;99924.81;5009714;28;20029;-86
2022/12/17 22:11:19;;;;;;;98.95;55.08;;;;;;;8.80;100.00;99911.88;5010777;28;20032;-86
2022/12/17 22:16:40;;;;;;;85.53;49.58;;;;;;;8.96;100.00;99922.72;5012232;28;20040;-85
2022/12/17 22:19:11;;;;;;;90.38;56.17;;;;;;;9.10;100.00;99919.88;5011038;28;20048;-87
2022/12/17 22:21:39;;;;;;;91.43;53.50;;;;;;;9.13;100.00;99936.81;5010910;28;20050;-86
2022/12/17 22:24:10;;;;;;;78.15;48.10;;;;;;;9.05;100.00;99943.16;5007356;28;20108;-86
2022/12/17 22:26:36;;;;;;;86.10;49.22;;;;;;;9.03;100.00;99953.78;5009955;28;20030;-85
2022/12/17 22:29:02;;;;;;;95.25;57.13;;;;;;;9.02;100.00;99946.56;5010272;28;20104;-85
2022/12/17 22:34:12;;;;;;;89.13;53.38;;;;;;;9.17;100.00;99964.09;5010903;28;20087;-86
2022/12/17 22:36:39;;;;;;;92.65;54.33;;;;;;;9.00;100.00;99960.00;5010717;28;20471;-86
2022/12/17 22:39:07;;;;;;;100.15;58.45;;;;;;;8.50;100.00;99958.78;5010899;28;20042;-86
2022/12/17 22:44:18;;;;;;;93.05;56.00;;;;;;;8.92;100.00;99958.78;5012050;28;20408;-85
2022/12/17 22:46:43;;;;;;;111.60;73.38;;;;;;;8.45;100.00;99950.50;5009730;28;20076;-86
2022/12/17 22:49:09;;;;;;;101.53;61.40;;;;;;;8.03;100.00;99958.81;5010928;28;20591;-87
2022/12/17 22:51:35;;;;;;;87.68;54.28;;;;;;;8.07;100.00;99970.16;5010645;28;20507;-87
2022/12/17 22:54:02;;;;;;;100.97;60.03;;;;;;;8.12;100.00;99964.50;5010768;28;20108;-87
2022/12/17 22:56:28;;;;;;;98.65;57.58;;;;;;;8.36;100.00;99966.31;5009924;28;20049;-87
2022/12/17 22:58:54;;;;;;;91.78;56.60;;;;;;;8.40;100.00;99956.16;5010691;28;20504;-86
2022/12/17 23:01:19;;;;;;;92.90;55.88;;;;;;;8.68;100.00;99962.63;5009659;28;20041;-86
2022/12/17 23:03:45;;;;;;;98.80;57.03;;;;;;;8.74;100.00;99965.28;5025111;28;20061;-86
2022/12/17 23:06:16;;;;;;;88.72;52.05;;;;;;;8.89;100.00;99969.72;5010191;28;20423;-86
2022/12/17 23:08:43;;;;;;;85.13;52.72;;;;;;;9.05;100.00;99968.28;5007242;28;20117;-85
2022/12/17 23:11:14;;;;;;;82.00;50.13;;;;;;;8.88;100.00;99973.66;4992139;28;20030;-86
2022/12/17 23:13:40;;;;;;;84.70;52.85;;;;;;;9.06;100.00;99964.34;4997316;28;20052;-86
2022/12/17 23:16:06;;;;;;;89.45;52.95;;;;;;;8.42;100.00;99956.69;5009323;28;20029;-86
2022/12/17 23:18:32;;;;;;;96.18;52.65;;;;;;;8.57;100.00;99970.38;5010323;28;20029;-86
2022/12/17 23:21:09;;;;;;;103.03;57.40;;;;;;;8.49;100.00;99973.84;5009356;28;20424;-87
2022/12/17 23:23:35;;;;;;;137.38;68.50;;;;;;;8.62;100.00;99966.63;5026075;28;20034;-86
2022/12/17 23:26:09;;;;;;;117.03;63.63;;;;;;;8.89;100.00;99975.31;5009868;28;20519;-85
2022/12/17 23:28:38;;;;;;;86.30;51.78;;;;;;;8.80;100.00;99962.09;5008989;28;20450;-87
2022/12/17 23:31:09;;;;;;;84.63;49.13;;;;;;;8.83;100.00;99975.44;5008278;28;20029;-86
2022/12/17 23:33:35;;;;;;;88.20;50.00;;;;;;;8.79;100.00;99982.75;5004874;28;20515;-87
2022/12/17 23:36:09;;;;;;;83.95;52.03;;;;;;;9.03;100.00;100001.22;5007771;28;20053;-85
2022/12/17 23:38:35;;;;;;;79.68;47.78;;;;;;;8.97;100.00;99994.13;4997398;28;20038;-85
2022/12/17 23:41:06;;;;;;;81.78;50.50;;;;;;;8.95;100.00;99997.22;5006219;28;20030;-85
2022/12/17 23:43:31;;;;;;;81.90;50.35;;;;;;;9.08;100.00;100003.94;5022023;28;20242;-85
2022/12/17 23:45:58;;;;;;;81.57;51.40;;;;;;;9.07;100.00;100020.97;5025160;28;20037;-85
2022/12/17 23:48:24;;;;;;;80.93;50.17;;;;;;;8.81;100.00;100019.56;5009599;28;20112;-85
2022/12/17 23:50:49;;;;;;;100.43;52.35;;;;;;;8.78;100.00;100003.41;5008193;28;20029;-86
2022/12/17 23:53:15;;;;;;;84.35;46.90;;;;;;;8.97;100.00;100031.19;5009069;28;20048;-85
2022/12/17 23:55:40;;;;;;;86.78;52.90;;;;;;;9.12;100.00;100040.41;5009214;28;20433;-85
2022/12/17 23:58:05;;;;;;;76.03;47.28;;;;;;;9.05;100.00;100031.63;5007836;28;20064;-85
